Tabiona
, Tabiona
Last Weather Update:05/15/2012 2:00:00 AM
Date
ETo
ETc
Rain
Irrigation
Req
Temp
Max
Temp
Min
Temp
Avg
Avg RH
Avg Wind
Avg Solar
inches
inches
incehs
inches
F
F
F
%
%
watts/m2
04/01/2012 0.17" 0.00" 0.00" 0.00" 55.7° 30.4° 41.5° 45.5% 12.4 MPH 336.0w/m2
04/02/2012 0.21" 0.01" 0.00" 0.01" 51.5° 24.3° 36.9° 40.5% 10.2 MPH 409.6w/m2
04/03/2012 0.26" 0.02" 0.00" 0.02" 59.4° 22.0° 40.1° 51.6% 6.7 MPH 504.0w/m2
04/04/2012 0.34" 0.03" 0.00" 0.03" 67.1° 30.3° 48.0° 39.0% 6.7 MPH 568.4w/m2
04/05/2012 0.26" 0.03" 0.00" 0.03" 60.3° 31.5° 47.5° 26.5% 10.0 MPH 379.5w/m2
04/06/2012 0.16" 0.02" 0.00" 0.02" 43.2° 15.3° 32.9° 35.9% 10.0 MPH 404.0w/m2
04/07/2012 0.24" 0.03" 0.00" 0.03" 53.4° 14.7° 33.8° 37.5% 7.8 MPH 497.1w/m2
04/08/2012 0.31" 0.05" 0.00" 0.05" 65.7° 25.0° 44.9° 25.5% 7.8 MPH 607.7w/m2
04/09/2012 0.35" 0.06" 0.00" 0.06" 71.5° 31.9° 50.8° 23.5% 8.6 MPH 620.1w/m2
04/10/2012 0.36" 0.07" 0.00" 0.07" 71.7° 35.5° 51.9° 25.1% 9.1 MPH 528.5w/m2
04/11/2012 0.29" 0.06" 0.06" 0.02" 68.2° 29.9° 47.9° 38.8% 10.1 MPH 436.1w/m2
04/12/2012 0.12" 0.03" 0.00" 0.03" 48.1° 25.8° 38.1° 61.9% 5.7 MPH 276.3w/m2
04/13/2012 0.12" 0.03" 0.02" 0.02" 45.5° 23.4° 34.9° 65.5% 4.1 MPH 293.5w/m2
04/14/2012 0.13" 0.04" 0.12" -0.06" 51.1° 30.8° 35.8° 78.8% 3.7 MPH 298.3w/m2
04/15/2012 0.21" 0.06" 0.00" 0.06" 50.5° 29.9° 39.1° 48.2% 11.9 MPH 469.0w/m2
04/16/2012 0.25" 0.08" 0.00" 0.08" 56.0° 28.1° 41.6° 45.1% 8.3 MPH 503.2w/m2
04/17/2012 0.18" 0.06" 0.00" 0.06" 58.5° 33.5° 43.2° 53.6% 7.5 MPH 348.6w/m2
04/18/2012 0.15" 0.05" 0.01" 0.05" 57.3° 29.2° 43.3° 60.8% 8.5 MPH 280.9w/m2
04/19/2012 0.22" 0.08" 0.00" 0.08" 56.5° 27.5° 43.8° 57.8% 10.9 MPH 435.4w/m2
04/20/2012 0.35" 0.14" 0.00" 0.14" 65.8° 29.0° 50.1° 47.5% 8.7 MPH 618.0w/m2
04/21/2012 0.28" 0.12" 0.00" 0.12" 74.5° 34.1° 55.9° 36.8% 7.1 MPH 473.0w/m2
04/22/2012 0.25" 0.11" 0.00" 0.11" 77.4° 39.5° 57.7° 32.5% 7.9 MPH 343.6w/m2
04/23/2012 0.32" 0.15" 0.00" 0.15" 79.1° 43.6° 59.6° 32.2% 8.6 MPH 444.8w/m2
04/24/2012 0.31" 0.15" 0.00" 0.15" 77.6° 42.8° 60.7° 27.4% 8.0 MPH 364.6w/m2
04/25/2012 0.20" 0.10" 0.00" 0.10" 67.5° 46.7° 56.7° 35.6% 5.6 MPH 304.8w/m2
04/26/2012 0.18" 0.10" 0.00" 0.10" 65.9° 38.9° 50.2° 59.3% 7.3 MPH 297.1w/m2
04/27/2012 0.20" 0.11" 0.00" 0.11" 46.8° 31.2° 38.0° 49.2% 17.9 MPH 486.6w/m2
04/28/2012 0.29" 0.16" 0.00" 0.16" 51.4° 23.4° 38.8° 29.6% 10.9 MPH 578.9w/m2
04/29/2012 0.33" 0.19" 0.00" 0.19" 59.7° 27.6° 44.3° 37.3% 7.7 MPH 613.2w/m2
04/30/2012 0.35" 0.21" 0.00" 0.21" 68.7° 28.2° 51.7° 32.8% 8.1 MPH 549.2w/m2
Totals: 7.39" 2.35" 0.21" 2.18" 79.1° 14.7° 45.3° 42.7% 8.6 MPH 442.3w/m2